Abis Cuxhaven — PBYB — position and weather

sailwx.info

Track history (hours):
 
Tides and Currents Weather Stations Pressure Air Temp Water Temp Dewpoint Dewpoint Depression Visibility Wind Speed Wind Dir Waves Ship Positions

Abis Cuxhaven

Last reported at 2015-Feb-26 00:23 UTC. Time now 2015-Feb-27 05:59 UTC.
Position N 64°52' W 024°06'.

Length 114 m; draft 5 m.

Type: Cargo ship. MMSI: 246670000.

Date/timePositionNaut miles runAvg speedWind from/ knotsBaromVisibWave heightAir tempDewpointWater temp
2015-Feb-26 00:23N 64°52' W 024°06'7 6.6
2015-Feb-25 23:16N 64°57' W 023°54'7 9.3
2015-Feb-25 22:32N 64°59' W 023°38'8 8.5
2015-Feb-25 21:33N 64°58' W 023°19'3 1.4
2015-Feb-25 19:21N 64°56' W 023°15'1 0.0
2015-Feb-25 08:27N 64°56' W 023°15'5 5.5
2015-Feb-25 07:33N 64°59' W 023°23'6 5.7
2015-Feb-25 06:29N 64°59' W 023°37'6 6.5
2015-Feb-25 05:30N 64°58' W 023°52'6 6.8
2015-Feb-25 04:33N 64°56' W 024°06'82 3.9
2015-Feb-24 07:31N 63°48' W 022°20'8 8.6
2015-Feb-24 06:33N 63°45' W 022°03'  
Track history (hours):
 
Tides and Currents Weather Stations Pressure Air Temp Water Temp Dewpoint Dewpoint Depression Visibility Wind Speed Wind Dir Waves Ship Positions

Abis Cuxhaven

Last reported at 2015-Feb-26 00:23 UTC. Time now 2015-Feb-27 05:59 UTC.
Position N 64°52' W 024°06'.

Length 114 m; draft 5 m.

Type: Cargo ship. MMSI: 246670000.

Date/timePositionNaut miles runAvg speedWind from/ knotsBaromVisibWave heightAir tempDewpointWater temp
2015-Feb-26 00:23N 64°52' W 024°06'7 6.6
2015-Feb-25 23:16N 64°57' W 023°54'7 9.3
2015-Feb-25 22:32N 64°59' W 023°38'8 8.5
2015-Feb-25 21:33N 64°58' W 023°19'3 1.4
2015-Feb-25 19:21N 64°56' W 023°15'1 0.0
2015-Feb-25 08:27N 64°56' W 023°15'5 5.5
2015-Feb-25 07:33N 64°59' W 023°23'6 5.7
2015-Feb-25 06:29N 64°59' W 023°37'6 6.5
2015-Feb-25 05:30N 64°58' W 023°52'6 6.8
2015-Feb-25 04:33N 64°56' W 024°06'82 3.9
2015-Feb-24 07:31N 63°48' W 022°20'8 8.6
2015-Feb-24 06:33N 63°45' W 022°03'  

Dump ship's entire track history